Albury, New South Wales

2:57 PM AEST on September 05, 2015 (GMT +1000)
Albury | | Change Station
CLOSE
Current Station
Airport
Location: Albury,
Elevation: 541 ft
Nearby Weather Stations

Elev 541 ft 36.07 °S, 146.96 °E | Updated 57 minutes ago

Scattered Clouds
Scattered Clouds
61 °F
Feels Like 61 °F
N
4
Wind Variable Wind from SSW

Today
High -- | Low -- °F
--% Chance of Precip.
Yesterday
High -- | Low -- °F
Precip. -- in
6:27 AM 5:55 PM
Waning Gibbous, 52% visible
Pressure 30.12 in
Visibility 6.2 miles
Clouds Scattered Clouds 3600 ft
Dew Point 46 °F
Humidity 59%
Rainfall 0.00 in
Snow Depth Not available.
UV 4 out of 12
Pollen Not available.
Air Quality Not available.
Flu Activity Not available.
METAR YMAY 050400Z AUTO 21003KT 9999 // SCT036 16/08 Q1020
Pressure 30.12 in
Visibility 6.2 miles
Clouds Scattered Clouds 3600 ft
Dew Point 46 °F
Humidity 59%
Rainfall 0.00 in
Snow Depth Not available.
UV 4 out of 12
Pollen Not available.
Air Quality Not available.
Flu Activity Not available.
METAR YMAY 050400Z AUTO 21003KT 9999 // SCT036 16/08 Q1020

10-Day Weather Forecast

×

Almanac

Astronomy

Sep. 05, 2015 Rise Set
Actual Time
Civil Twilight
Nautical Twilight
Astronomical Twilight
Moon
Length of Visible Light
Length of Day
Tomorrow will be .
, % of the Moon is Illuminated

Today's Extremes

Country Highs Country Lows

Community

WunderPhotos

Upload Photos

1,852,426 photos uploaded!

WunderBlogs® & News

Nearby

Air Quality

  Air Quality AQ Index Pollutant
Not available.

Snow Depth

Station Depth Elevation

Earthquake Activity

City Distance Mag. Time & Date
Minimum magnitude displayed is 2.5.

Coastal Water Temperatures

Place Temperature

Stations

Nearby Weather Stations

Station Location Temp. Windchill Dew Point Humidity Wind Precip. Elev Updated Type